sensor_id;sensor_type;location;lat;lon;timestamp;P1;durP1;ratioP1;P2;durP2;ratioP2
31386;SDS011;18017;50.124;8.688;2022-12-07T00:02:04;16.05;;;5.97;;
31386;SDS011;18017;50.124;8.688;2022-12-07T00:04:29;14.85;;;5.68;;
31386;SDS011;18017;50.124;8.688;2022-12-07T00:06:55;15.45;;;5.75;;
31386;SDS011;18017;50.124;8.688;2022-12-07T00:09:21;11.80;;;5.30;;
31386;SDS011;18017;50.124;8.688;2022-12-07T00:11:48;11.75;;;5.03;;
31386;SDS011;18017;50.124;8.688;2022-12-07T00:14:15;17.90;;;6.20;;
31386;SDS011;18017;50.124;8.688;2022-12-07T00:16:42;13.90;;;5.32;;
31386;SDS011;18017;50.124;8.688;2022-12-07T00:19:09;14.82;;;5.78;;
31386;SDS011;18017;50.124;8.688;2022-12-07T00:21:36;14.55;;;6.05;;
31386;SDS011;18017;50.124;8.688;2022-12-07T00:24:02;14.52;;;5.53;;
31386;SDS011;18017;50.124;8.688;2022-12-07T00:26:30;14.55;;;5.47;;
31386;SDS011;18017;50.124;8.688;2022-12-07T00:28:58;14.65;;;5.75;;
31386;SDS011;18017;50.124;8.688;2022-12-07T00:31:27;13.30;;;5.13;;
31386;SDS011;18017;50.124;8.688;2022-12-07T00:33:55;11.35;;;5.05;;
31386;SDS011;18017;50.124;8.688;2022-12-07T00:36:22;13.98;;;4.95;;
31386;SDS011;18017;50.124;8.688;2022-12-07T00:38:49;15.45;;;5.38;;
31386;SDS011;18017;50.124;8.688;2022-12-07T00:41:15;15.82;;;6.28;;
31386;SDS011;18017;50.124;8.688;2022-12-07T00:43:43;15.13;;;5.25;;
31386;SDS011;18017;50.124;8.688;2022-12-07T00:46:10;14.07;;;5.65;;
31386;SDS011;18017;50.124;8.688;2022-12-07T00:48:36;14.05;;;5.45;;
31386;SDS011;18017;50.124;8.688;2022-12-07T00:51:02;13.50;;;5.43;;
31386;SDS011;18017;50.124;8.688;2022-12-07T00:53:28;15.05;;;5.10;;
31386;SDS011;18017;50.124;8.688;2022-12-07T00:55:54;13.18;;;5.32;;
31386;SDS011;18017;50.124;8.688;2022-12-07T00:58:23;14.27;;;5.13;;
31386;SDS011;18017;50.124;8.688;2022-12-07T01:00:48;14.80;;;5.28;;
31386;SDS011;18017;50.124;8.688;2022-12-07T01:03:15;14.00;;;4.72;;
31386;SDS011;18017;50.124;8.688;2022-12-07T01:05:48;11.95;;;4.95;;
31386;SDS011;18017;50.124;8.688;2022-12-07T01:08:18;14.82;;;5.68;;
31386;SDS011;18017;50.124;8.688;2022-12-07T01:10:45;13.05;;;5.32;;
31386;SDS011;18017;50.124;8.688;2022-12-07T01:13:10;14.02;;;5.40;;
31386;SDS011;18017;50.124;8.688;2022-12-07T01:15:40;15.02;;;5.75;;
31386;SDS011;18017;50.124;8.688;2022-12-07T01:18:07;15.55;;;5.10;;
31386;SDS011;18017;50.124;8.688;2022-12-07T01:20:33;17.40;;;5.80;;
31386;SDS011;18017;50.124;8.688;2022-12-07T01:22:59;16.58;;;5.38;;
31386;SDS011;18017;50.124;8.688;2022-12-07T01:25:24;15.07;;;5.75;;
31386;SDS011;18017;50.124;8.688;2022-12-07T01:27:50;15.70;;;5.28;;
31386;SDS011;18017;50.124;8.688;2022-12-07T01:30:15;15.10;;;5.28;;
31386;SDS011;18017;50.124;8.688;2022-12-07T01:32:41;16.83;;;5.05;;
31386;SDS011;18017;50.124;8.688;2022-12-07T01:35:07;13.40;;;5.03;;
31386;SDS011;18017;50.124;8.688;2022-12-07T01:37:36;14.32;;;4.88;;
31386;SDS011;18017;50.124;8.688;2022-12-07T01:40:03;15.35;;;5.20;;
31386;SDS011;18017;50.124;8.688;2022-12-07T01:42:30;13.95;;;5.00;;
31386;SDS011;18017;50.124;8.688;2022-12-07T01:47:43;14.38;;;4.25;;
31386;SDS011;18017;50.124;8.688;2022-12-07T01:50:16;14.73;;;4.90;;
31386;SDS011;18017;50.124;8.688;2022-12-07T01:52:42;13.18;;;4.70;;
31386;SDS011;18017;50.124;8.688;2022-12-07T01:55:13;11.90;;;4.22;;
31386;SDS011;18017;50.124;8.688;2022-12-07T01:57:41;13.30;;;4.45;;
31386;SDS011;18017;50.124;8.688;2022-12-07T02:00:10;11.52;;;3.95;;
31386;SDS011;18017;50.124;8.688;2022-12-07T02:02:37;14.82;;;5.05;;
31386;SDS011;18017;50.124;8.688;2022-12-07T02:05:25;12.75;;;4.25;;
31386;SDS011;18017;50.124;8.688;2022-12-07T02:07:51;13.55;;;4.70;;
31386;SDS011;18017;50.124;8.688;2022-12-07T02:10:26;12.50;;;4.70;;
31386;SDS011;18017;50.124;8.688;2022-12-07T02:12:55;11.57;;;4.45;;
31386;SDS011;18017;50.124;8.688;2022-12-07T02:32:35;10.40;;;4.30;;
31386;SDS011;18017;50.124;8.688;2022-12-07T02:35:23;13.10;;;3.75;;
31386;SDS011;18017;50.124;8.688;2022-12-07T02:38:14;11.20;;;4.13;;
31386;SDS011;18017;50.124;8.688;2022-12-07T02:40:46;16.02;;;4.05;;
31386;SDS011;18017;50.124;8.688;2022-12-07T02:43:30;12.02;;;4.05;;
31386;SDS011;18017;50.124;8.688;2022-12-07T02:46:04;8.98;;;3.60;;
31386;SDS011;18017;50.124;8.688;2022-12-07T02:48:34;15.00;;;4.50;;
31386;SDS011;18017;50.124;8.688;2022-12-07T02:51:02;11.93;;;4.15;;
31386;SDS011;18017;50.124;8.688;2022-12-07T02:53:35;8.80;;;3.78;;
31386;SDS011;18017;50.124;8.688;2022-12-07T02:56:05;9.25;;;3.63;;
31386;SDS011;18017;50.124;8.688;2022-12-07T03:01:39;11.65;;;3.72;;
31386;SDS011;18017;50.124;8.688;2022-12-07T03:18:05;9.38;;;3.50;;
31386;SDS011;18017;50.124;8.688;2022-12-07T03:20:32;10.20;;;3.65;;
31386;SDS011;18017;50.124;8.688;2022-12-07T03:23:00;8.70;;;3.03;;
31386;SDS011;18017;50.124;8.688;2022-12-07T03:25:28;11.77;;;3.85;;
31386;SDS011;18017;50.124;8.688;2022-12-07T03:27:55;11.68;;;3.80;;
31386;SDS011;18017;50.124;8.688;2022-12-07T03:30:29;8.68;;;3.65;;
31386;SDS011;18017;50.124;8.688;2022-12-07T03:35:40;9.18;;;3.30;;
31386;SDS011;18017;50.124;8.688;2022-12-07T03:38:15;7.60;;;3.22;;
31386;SDS011;18017;50.124;8.688;2022-12-07T03:40:47;7.88;;;3.38;;
31386;SDS011;18017;50.124;8.688;2022-12-07T03:43:21;10.57;;;3.47;;
31386;SDS011;18017;50.124;8.688;2022-12-07T03:51:21;11.15;;;4.15;;
31386;SDS011;18017;50.124;8.688;2022-12-07T03:54:07;12.63;;;3.47;;
31386;SDS011;18017;50.124;8.688;2022-12-07T03:56:44;7.80;;;3.42;;
31386;SDS011;18017;50.124;8.688;2022-12-07T03:59:11;10.40;;;3.50;;
31386;SDS011;18017;50.124;8.688;2022-12-07T04:01:40;11.13;;;3.50;;
31386;SDS011;18017;50.124;8.688;2022-12-07T04:04:07;10.15;;;3.25;;
31386;SDS011;18017;50.124;8.688;2022-12-07T04:06:33;10.15;;;3.45;;
31386;SDS011;18017;50.124;8.688;2022-12-07T04:08:58;11.63;;;3.78;;
31386;SDS011;18017;50.124;8.688;2022-12-07T04:11:24;12.23;;;3.63;;
31386;SDS011;18017;50.124;8.688;2022-12-07T04:13:49;8.38;;;3.30;;
31386;SDS011;18017;50.124;8.688;2022-12-07T04:16:33;9.80;;;2.95;;
31386;SDS011;18017;50.124;8.688;2022-12-07T04:18:59;7.75;;;3.10;;
31386;SDS011;18017;50.124;8.688;2022-12-07T04:21:24;9.30;;;3.25;;
31386;SDS011;18017;50.124;8.688;2022-12-07T04:23:50;9.70;;;3.70;;
31386;SDS011;18017;50.124;8.688;2022-12-07T04:26:15;8.73;;;3.10;;
31386;SDS011;18017;50.124;8.688;2022-12-07T04:28:41;8.05;;;3.10;;
31386;SDS011;18017;50.124;8.688;2022-12-07T04:31:07;9.73;;;2.90;;
31386;SDS011;18017;50.124;8.688;2022-12-07T04:33:32;11.88;;;3.42;;
31386;SDS011;18017;50.124;8.688;2022-12-07T04:35:58;8.65;;;3.05;;
31386;SDS011;18017;50.124;8.688;2022-12-07T04:38:23;9.75;;;2.88;;
31386;SDS011;18017;50.124;8.688;2022-12-07T04:40:49;7.32;;;2.90;;
31386;SDS011;18017;50.124;8.688;2022-12-07T04:43:14;10.80;;;2.78;;
31386;SDS011;18017;50.124;8.688;2022-12-07T04:45:44;10.60;;;3.60;;
31386;SDS011;18017;50.124;8.688;2022-12-07T04:48:11;10.68;;;3.40;;
31386;SDS011;18017;50.124;8.688;2022-12-07T04:50:36;9.02;;;3.45;;
31386;SDS011;18017;50.124;8.688;2022-12-07T04:53:03;9.05;;;2.78;;
31386;SDS011;18017;50.124;8.688;2022-12-07T04:55:28;9.98;;;3.30;;
31386;SDS011;18017;50.124;8.688;2022-12-07T04:57:54;9.45;;;3.33;;
31386;SDS011;18017;50.124;8.688;2022-12-07T05:00:19;8.70;;;3.10;;
31386;SDS011;18017;50.124;8.688;2022-12-07T05:02:45;9.80;;;3.10;;
31386;SDS011;18017;50.124;8.688;2022-12-07T05:05:10;8.73;;;3.05;;
31386;SDS011;18017;50.124;8.688;2022-12-07T05:07:36;7.95;;;2.85;;
31386;SDS011;18017;50.124;8.688;2022-12-07T05:10:02;10.82;;;3.60;;
31386;SDS011;18017;50.124;8.688;2022-12-07T05:12:28;9.30;;;3.22;;
31386;SDS011;18017;50.124;8.688;2022-12-07T05:14:53;9.75;;;3.30;;
31386;SDS011;18017;50.124;8.688;2022-12-07T05:17:19;9.50;;;2.90;;
31386;SDS011;18017;50.124;8.688;2022-12-07T05:19:44;8.70;;;3.00;;
31386;SDS011;18017;50.124;8.688;2022-12-07T05:22:10;9.98;;;3.60;;
31386;SDS011;18017;50.124;8.688;2022-12-07T05:24:35;9.73;;;3.25;;
31386;SDS011;18017;50.124;8.688;2022-12-07T05:27:01;11.13;;;3.75;;
31386;SDS011;18017;50.124;8.688;2022-12-07T05:29:27;8.52;;;2.90;;
31386;SDS011;18017;50.124;8.688;2022-12-07T05:31:52;8.40;;;3.58;;
31386;SDS011;18017;50.124;8.688;2022-12-07T05:34:18;12.63;;;3.63;;
31386;SDS011;18017;50.124;8.688;2022-12-07T05:36:43;10.20;;;3.40;;
31386;SDS011;18017;50.124;8.688;2022-12-07T05:39:09;10.05;;;3.53;;
31386;SDS011;18017;50.124;8.688;2022-12-07T05:41:35;9.57;;;3.55;;
31386;SDS011;18017;50.124;8.688;2022-12-07T05:44:19;8.63;;;3.33;;
31386;SDS011;18017;50.124;8.688;2022-12-07T05:46:45;9.80;;;3.20;;
31386;SDS011;18017;50.124;8.688;2022-12-07T05:49:10;11.95;;;3.83;;
31386;SDS011;18017;50.124;8.688;2022-12-07T05:51:36;13.65;;;4.18;;
31386;SDS011;18017;50.124;8.688;2022-12-07T05:54:01;10.05;;;3.40;;
31386;SDS011;18017;50.124;8.688;2022-12-07T05:56:27;9.77;;;3.72;;
31386;SDS011;18017;50.124;8.688;2022-12-07T05:58:53;8.90;;;3.13;;
31386;SDS011;18017;50.124;8.688;2022-12-07T06:01:37;10.20;;;3.85;;
31386;SDS011;18017;50.124;8.688;2022-12-07T06:04:03;10.57;;;3.47;;
31386;SDS011;18017;50.124;8.688;2022-12-07T06:06:28;14.07;;;4.10;;
31386;SDS011;18017;50.124;8.688;2022-12-07T06:08:54;9.95;;;3.45;;
31386;SDS011;18017;50.124;8.688;2022-12-07T06:11:20;14.27;;;4.00;;
31386;SDS011;18017;50.124;8.688;2022-12-07T06:14:04;12.48;;;4.30;;
31386;SDS011;18017;50.124;8.688;2022-12-07T06:16:29;10.00;;;4.10;;
31386;SDS011;18017;50.124;8.688;2022-12-07T06:18:55;13.38;;;4.03;;
31386;SDS011;18017;50.124;8.688;2022-12-07T06:21:20;11.30;;;4.03;;
31386;SDS011;18017;50.124;8.688;2022-12-07T06:23:46;15.05;;;3.88;;
31386;SDS011;18017;50.124;8.688;2022-12-07T06:26:12;12.32;;;4.40;;
31386;SDS011;18017;50.124;8.688;2022-12-07T06:28:38;10.73;;;3.78;;
31386;SDS011;18017;50.124;8.688;2022-12-07T06:31:05;15.13;;;4.78;;
31386;SDS011;18017;50.124;8.688;2022-12-07T06:33:31;11.48;;;3.63;;
31386;SDS011;18017;50.124;8.688;2022-12-07T06:35:56;9.68;;;3.88;;
31386;SDS011;18017;50.124;8.688;2022-12-07T06:38:22;13.15;;;4.28;;
31386;SDS011;18017;50.124;8.688;2022-12-07T06:40:47;13.85;;;4.45;;
31386;SDS011;18017;50.124;8.688;2022-12-07T06:43:13;12.40;;;4.03;;
31386;SDS011;18017;50.124;8.688;2022-12-07T06:45:40;10.70;;;3.80;;
31386;SDS011;18017;50.124;8.688;2022-12-07T06:48:06;11.65;;;4.60;;
31386;SDS011;18017;50.124;8.688;2022-12-07T06:50:31;15.25;;;4.25;;
31386;SDS011;18017;50.124;8.688;2022-12-07T06:52:57;10.07;;;3.67;;
31386;SDS011;18017;50.124;8.688;2022-12-07T06:55:22;11.25;;;4.00;;
31386;SDS011;18017;50.124;8.688;2022-12-07T06:57:48;12.82;;;4.13;;
31386;SDS011;18017;50.124;8.688;2022-12-07T07:00:14;12.55;;;4.68;;
31386;SDS011;18017;50.124;8.688;2022-12-07T07:02:39;12.90;;;4.53;;
31386;SDS011;18017;50.124;8.688;2022-12-07T07:05:05;9.32;;;4.10;;
31386;SDS011;18017;50.124;8.688;2022-12-07T07:07:31;15.43;;;4.10;;
31386;SDS011;18017;50.124;8.688;2022-12-07T07:09:56;10.23;;;4.25;;
31386;SDS011;18017;50.124;8.688;2022-12-07T07:12:22;11.43;;;4.18;;
31386;SDS011;18017;50.124;8.688;2022-12-07T07:14:47;13.50;;;4.85;;
31386;SDS011;18017;50.124;8.688;2022-12-07T07:17:13;13.48;;;4.57;;
31386;SDS011;18017;50.124;8.688;2022-12-07T07:19:38;11.15;;;4.30;;
31386;SDS011;18017;50.124;8.688;2022-12-07T07:22:04;13.70;;;4.82;;
31386;SDS011;18017;50.124;8.688;2022-12-07T07:24:30;13.00;;;4.10;;
31386;SDS011;18017;50.124;8.688;2022-12-07T07:26:55;15.70;;;4.70;;
31386;SDS011;18017;50.124;8.688;2022-12-07T07:29:21;11.50;;;4.28;;
31386;SDS011;18017;50.124;8.688;2022-12-07T07:31:47;11.98;;;4.32;;
31386;SDS011;18017;50.124;8.688;2022-12-07T07:34:12;11.43;;;3.97;;
31386;SDS011;18017;50.124;8.688;2022-12-07T07:36:38;13.15;;;4.22;;
31386;SDS011;18017;50.124;8.688;2022-12-07T07:39:03;16.30;;;4.50;;
31386;SDS011;18017;50.124;8.688;2022-12-07T07:41:29;14.38;;;4.00;;
31386;SDS011;18017;50.124;8.688;2022-12-07T07:43:55;10.50;;;4.00;;
31386;SDS011;18017;50.124;8.688;2022-12-07T07:46:21;12.20;;;4.07;;
31386;SDS011;18017;50.124;8.688;2022-12-07T07:48:46;12.25;;;4.57;;
31386;SDS011;18017;50.124;8.688;2022-12-07T07:51:12;13.18;;;4.40;;
31386;SDS011;18017;50.124;8.688;2022-12-07T07:53:37;12.35;;;3.85;;
31386;SDS011;18017;50.124;8.688;2022-12-07T07:56:03;13.65;;;4.32;;
31386;SDS011;18017;50.124;8.688;2022-12-07T07:58:29;9.48;;;3.83;;
31386;SDS011;18017;50.124;8.688;2022-12-07T08:00:54;13.77;;;4.40;;
31386;SDS011;18017;50.124;8.688;2022-12-07T08:03:20;13.27;;;4.00;;
31386;SDS011;18017;50.124;8.688;2022-12-07T08:05:45;10.73;;;3.92;;
31386;SDS011;18017;50.124;8.688;2022-12-07T08:08:11;13.90;;;4.43;;
31386;SDS011;18017;50.124;8.688;2022-12-07T08:10:37;13.40;;;4.10;;
31386;SDS011;18017;50.124;8.688;2022-12-07T08:13:03;12.10;;;3.90;;
31386;SDS011;18017;50.124;8.688;2022-12-07T08:15:41;10.15;;;4.30;;
31386;SDS011;18017;50.124;8.688;2022-12-07T08:18:08;10.73;;;4.43;;
31386;SDS011;18017;50.124;8.688;2022-12-07T08:20:35;11.80;;;4.07;;
31386;SDS011;18017;50.124;8.688;2022-12-07T08:23:02;10.20;;;3.92;;
31386;SDS011;18017;50.124;8.688;2022-12-07T08:25:28;7.75;;;3.70;;
31386;SDS011;18017;50.124;8.688;2022-12-07T08:27:54;9.25;;;3.25;;
31386;SDS011;18017;50.124;8.688;2022-12-07T08:30:20;10.95;;;3.70;;
31386;SDS011;18017;50.124;8.688;2022-12-07T08:32:46;14.50;;;3.45;;
31386;SDS011;18017;50.124;8.688;2022-12-07T08:35:12;10.15;;;3.33;;
31386;SDS011;18017;50.124;8.688;2022-12-07T08:37:38;6.82;;;2.75;;
31386;SDS011;18017;50.124;8.688;2022-12-07T08:40:04;9.85;;;3.38;;
31386;SDS011;18017;50.124;8.688;2022-12-07T08:42:31;10.32;;;3.10;;
31386;SDS011;18017;50.124;8.688;2022-12-07T08:45:04;7.05;;;2.60;;
31386;SDS011;18017;50.124;8.688;2022-12-07T08:47:38;7.97;;;3.20;;
31386;SDS011;18017;50.124;8.688;2022-12-07T08:50:15;6.68;;;2.58;;
31386;SDS011;18017;50.124;8.688;2022-12-07T08:52:42;7.25;;;3.17;;
31386;SDS011;18017;50.124;8.688;2022-12-07T08:55:09;6.85;;;2.70;;
31386;SDS011;18017;50.124;8.688;2022-12-07T08:57:36;7.47;;;3.20;;
31386;SDS011;18017;50.124;8.688;2022-12-07T09:00:03;9.98;;;2.65;;
31386;SDS011;18017;50.124;8.688;2022-12-07T09:02:30;8.05;;;2.85;;
31386;SDS011;18017;50.124;8.688;2022-12-07T09:04:56;7.70;;;2.63;;
31386;SDS011;18017;50.124;8.688;2022-12-07T09:07:22;9.25;;;2.95;;
31386;SDS011;18017;50.124;8.688;2022-12-07T09:09:48;8.82;;;2.40;;
31386;SDS011;18017;50.124;8.688;2022-12-07T09:12:14;6.95;;;2.50;;
31386;SDS011;18017;50.124;8.688;2022-12-07T09:14:40;9.05;;;2.70;;
31386;SDS011;18017;50.124;8.688;2022-12-07T09:17:09;6.75;;;2.78;;
31386;SDS011;18017;50.124;8.688;2022-12-07T09:19:38;7.13;;;3.17;;
31386;SDS011;18017;50.124;8.688;2022-12-07T09:22:04;5.65;;;2.83;;
31386;SDS011;18017;50.124;8.688;2022-12-07T09:24:30;6.32;;;2.78;;
31386;SDS011;18017;50.124;8.688;2022-12-07T09:26:57;7.60;;;2.67;;
31386;SDS011;18017;50.124;8.688;2022-12-07T09:29:22;9.43;;;3.20;;
31386;SDS011;18017;50.124;8.688;2022-12-07T09:31:48;7.35;;;2.47;;
31386;SDS011;18017;50.124;8.688;2022-12-07T09:34:14;8.65;;;2.88;;
31386;SDS011;18017;50.124;8.688;2022-12-07T09:36:39;13.30;;;2.78;;
31386;SDS011;18017;50.124;8.688;2022-12-07T09:39:05;7.53;;;2.80;;
31386;SDS011;18017;50.124;8.688;2022-12-07T09:41:31;9.18;;;2.70;;
31386;SDS011;18017;50.124;8.688;2022-12-07T09:44:04;10.13;;;3.05;;
31386;SDS011;18017;50.124;8.688;2022-12-07T09:46:48;10.27;;;3.10;;
31386;SDS011;18017;50.124;8.688;2022-12-07T09:49:16;8.75;;;3.08;;
31386;SDS011;18017;50.124;8.688;2022-12-07T09:54:29;4.97;;;2.35;;
31386;SDS011;18017;50.124;8.688;2022-12-07T09:56:55;7.32;;;2.88;;
31386;SDS011;18017;50.124;8.688;2022-12-07T09:59:21;7.90;;;2.50;;
31386;SDS011;18017;50.124;8.688;2022-12-07T10:01:48;8.25;;;2.55;;
31386;SDS011;18017;50.124;8.688;2022-12-07T10:06:43;7.30;;;2.40;;
31386;SDS011;18017;50.124;8.688;2022-12-07T10:09:11;5.22;;;2.13;;
31386;SDS011;18017;50.124;8.688;2022-12-07T10:14:27;5.97;;;1.95;;
31386;SDS011;18017;50.124;8.688;2022-12-07T10:16:55;8.90;;;2.30;;
31386;SDS011;18017;50.124;8.688;2022-12-07T10:19:28;9.27;;;2.50;;
31386;SDS011;18017;50.124;8.688;2022-12-07T10:24:29;6.20;;;2.47;;
31386;SDS011;18017;50.124;8.688;2022-12-07T10:26:55;7.30;;;1.92;;
31386;SDS011;18017;50.124;8.688;2022-12-07T10:29:23;8.65;;;1.90;;
31386;SDS011;18017;50.124;8.688;2022-12-07T10:32:00;3.45;;;1.48;;
31386;SDS011;18017;50.124;8.688;2022-12-07T10:34:49;4.32;;;1.20;;
31386;SDS011;18017;50.124;8.688;2022-12-07T10:42:20;3.28;;;1.00;;
31386;SDS011;18017;50.124;8.688;2022-12-07T10:44:48;4.50;;;1.20;;
31386;SDS011;18017;50.124;8.688;2022-12-07T10:47:34;3.72;;;0.68;;
31386;SDS011;18017;50.124;8.688;2022-12-07T10:50:13;3.88;;;0.70;;
31386;SDS011;18017;50.124;8.688;2022-12-07T10:58:28;4.43;;;0.65;;
31386;SDS011;18017;50.124;8.688;2022-12-07T11:03:54;1.92;;;0.70;;
31386;SDS011;18017;50.124;8.688;2022-12-07T11:09:25;2.17;;;0.47;;
31386;SDS011;18017;50.124;8.688;2022-12-07T11:12:20;3.30;;;0.45;;
31386;SDS011;18017;50.124;8.688;2022-12-07T11:20:22;4.72;;;0.70;;
31386;SDS011;18017;50.124;8.688;2022-12-07T11:23:14;4.45;;;0.50;;
31386;SDS011;18017;50.124;8.688;2022-12-07T11:31:29;3.15;;;0.60;;
31386;SDS011;18017;50.124;8.688;2022-12-07T11:34:33;4.55;;;0.85;;
31386;SDS011;18017;50.124;8.688;2022-12-07T11:37:12;3.50;;;1.07;;
31386;SDS011;18017;50.124;8.688;2022-12-07T11:39:47;4.75;;;0.90;;
31386;SDS011;18017;50.124;8.688;2022-12-07T11:42:21;4.30;;;1.02;;
31386;SDS011;18017;50.124;8.688;2022-12-07T11:45:00;3.53;;;0.70;;
31386;SDS011;18017;50.124;8.688;2022-12-07T11:47:45;4.10;;;0.90;;
31386;SDS011;18017;50.124;8.688;2022-12-07T11:53:01;7.90;;;1.27;;
31386;SDS011;18017;50.124;8.688;2022-12-07T11:55:56;5.13;;;0.70;;
31386;SDS011;18017;50.124;8.688;2022-12-07T11:58:48;3.58;;;0.63;;
31386;SDS011;18017;50.124;8.688;2022-12-07T12:01:29;6.25;;;0.88;;
31386;SDS011;18017;50.124;8.688;2022-12-07T12:06:28;2.42;;;0.70;;
31386;SDS011;18017;50.124;8.688;2022-12-07T12:17:30;5.53;;;1.00;;
31386;SDS011;18017;50.124;8.688;2022-12-07T12:20:22;3.78;;;0.82;;
31386;SDS011;18017;50.124;8.688;2022-12-07T12:22:56;3.72;;;0.73;;
31386;SDS011;18017;50.124;8.688;2022-12-07T12:27:59;4.85;;;0.75;;
31386;SDS011;18017;50.124;8.688;2022-12-07T12:33:03;2.95;;;0.63;;
31386;SDS011;18017;50.124;8.688;2022-12-07T12:40:58;4.03;;;0.52;;
31386;SDS011;18017;50.124;8.688;2022-12-07T12:49:14;3.30;;;0.60;;
31386;SDS011;18017;50.124;8.688;2022-12-07T12:54:33;5.47;;;0.50;;
31386;SDS011;18017;50.124;8.688;2022-12-07T12:57:14;2.47;;;0.40;;
31386;SDS011;18017;50.124;8.688;2022-12-07T13:04:58;4.57;;;0.60;;
31386;SDS011;18017;50.124;8.688;2022-12-07T13:15:31;2.88;;;0.30;;
31386;SDS011;18017;50.124;8.688;2022-12-07T13:17:57;3.50;;;0.30;;
31386;SDS011;18017;50.124;8.688;2022-12-07T13:20:48;3.35;;;0.30;;
31386;SDS011;18017;50.124;8.688;2022-12-07T13:23:14;2.17;;;0.30;;
31386;SDS011;18017;50.124;8.688;2022-12-07T13:28:36;4.90;;;0.60;;
31386;SDS011;18017;50.124;8.688;2022-12-07T13:33:56;2.00;;;0.52;;
31386;SDS011;18017;50.124;8.688;2022-12-07T13:36:23;3.90;;;0.47;;
31386;SDS011;18017;50.124;8.688;2022-12-07T13:39:10;2.45;;;0.60;;
31386;SDS011;18017;50.124;8.688;2022-12-07T13:41:41;1.52;;;0.30;;
31386;SDS011;18017;50.124;8.688;2022-12-07T13:44:11;3.15;;;0.45;;
31386;SDS011;18017;50.124;8.688;2022-12-07T13:49:39;3.45;;;0.38;;
31386;SDS011;18017;50.124;8.688;2022-12-07T13:52:23;3.80;;;0.30;;
31386;SDS011;18017;50.124;8.688;2022-12-07T13:57:31;3.95;;;0.35;;
31386;SDS011;18017;50.124;8.688;2022-12-07T14:00:00;2.03;;;0.22;;
31386;SDS011;18017;50.124;8.688;2022-12-07T14:02:34;2.20;;;0.30;;
31386;SDS011;18017;50.124;8.688;2022-12-07T14:05:10;4.18;;;0.25;;
31386;SDS011;18017;50.124;8.688;2022-12-07T14:08:00;3.08;;;0.40;;
31386;SDS011;18017;50.124;8.688;2022-12-07T14:13:24;2.38;;;0.40;;
31386;SDS011;18017;50.124;8.688;2022-12-07T14:15:52;1.67;;;0.43;;
31386;SDS011;18017;50.124;8.688;2022-12-07T14:18:37;0.90;;;0.60;;
31386;SDS011;18017;50.124;8.688;2022-12-07T14:21:14;1.27;;;0.30;;
31386;SDS011;18017;50.124;8.688;2022-12-07T14:23:43;2.25;;;0.43;;
31386;SDS011;18017;50.124;8.688;2022-12-07T14:26:18;2.58;;;0.45;;
31386;SDS011;18017;50.124;8.688;2022-12-07T14:28:45;1.92;;;0.40;;
31386;SDS011;18017;50.124;8.688;2022-12-07T14:31:12;3.08;;;0.50;;
31386;SDS011;18017;50.124;8.688;2022-12-07T14:33:43;4.65;;;0.50;;
31386;SDS011;18017;50.124;8.688;2022-12-07T14:36:10;1.95;;;0.55;;
31386;SDS011;18017;50.124;8.688;2022-12-07T14:38:37;2.88;;;0.80;;
31386;SDS011;18017;50.124;8.688;2022-12-07T14:41:03;2.33;;;0.55;;
31386;SDS011;18017;50.124;8.688;2022-12-07T14:43:51;3.05;;;0.50;;
31386;SDS011;18017;50.124;8.688;2022-12-07T14:46:16;3.42;;;0.40;;
31386;SDS011;18017;50.124;8.688;2022-12-07T14:48:42;2.13;;;0.50;;
31386;SDS011;18017;50.124;8.688;2022-12-07T14:51:08;3.78;;;0.40;;
31386;SDS011;18017;50.124;8.688;2022-12-07T14:53:37;1.25;;;0.40;;
31386;SDS011;18017;50.124;8.688;2022-12-07T14:56:06;2.08;;;0.70;;
31386;SDS011;18017;50.124;8.688;2022-12-07T14:58:32;4.63;;;0.52;;
31386;SDS011;18017;50.124;8.688;2022-12-07T15:00:58;2.20;;;0.60;;
31386;SDS011;18017;50.124;8.688;2022-12-07T15:03:24;4.50;;;0.60;;
31386;SDS011;18017;50.124;8.688;2022-12-07T15:05:50;2.30;;;0.40;;
31386;SDS011;18017;50.124;8.688;2022-12-07T15:08:16;4.28;;;0.50;;
31386;SDS011;18017;50.124;8.688;2022-12-07T15:10:43;2.15;;;0.45;;
31386;SDS011;18017;50.124;8.688;2022-12-07T15:13:09;5.80;;;0.50;;
31386;SDS011;18017;50.124;8.688;2022-12-07T15:15:54;3.72;;;0.60;;
31386;SDS011;18017;50.124;8.688;2022-12-07T15:18:20;7.22;;;0.80;;
31386;SDS011;18017;50.124;8.688;2022-12-07T15:20:47;3.45;;;0.77;;
31386;SDS011;18017;50.124;8.688;2022-12-07T15:23:13;3.10;;;0.52;;
31386;SDS011;18017;50.124;8.688;2022-12-07T15:25:40;2.45;;;0.60;;
31386;SDS011;18017;50.124;8.688;2022-12-07T15:28:09;6.10;;;0.73;;
31386;SDS011;18017;50.124;8.688;2022-12-07T15:30:38;5.30;;;0.60;;
31386;SDS011;18017;50.124;8.688;2022-12-07T15:33:05;5.88;;;0.82;;
31386;SDS011;18017;50.124;8.688;2022-12-07T15:35:31;4.15;;;0.60;;
31386;SDS011;18017;50.124;8.688;2022-12-07T15:37:57;2.88;;;0.60;;
31386;SDS011;18017;50.124;8.688;2022-12-07T15:40:22;2.90;;;0.50;;
31386;SDS011;18017;50.124;8.688;2022-12-07T15:42:48;3.53;;;0.50;;
31386;SDS011;18017;50.124;8.688;2022-12-07T15:45:13;5.63;;;0.50;;
31386;SDS011;18017;50.124;8.688;2022-12-07T15:47:40;2.15;;;0.55;;
31386;SDS011;18017;50.124;8.688;2022-12-07T15:50:08;3.97;;;0.50;;
31386;SDS011;18017;50.124;8.688;2022-12-07T15:52:36;4.68;;;0.63;;
31386;SDS011;18017;50.124;8.688;2022-12-07T15:55:02;7.18;;;0.75;;
31386;SDS011;18017;50.124;8.688;2022-12-07T15:57:28;6.63;;;0.60;;
31386;SDS011;18017;50.124;8.688;2022-12-07T15:59:54;2.65;;;0.65;;
31386;SDS011;18017;50.124;8.688;2022-12-07T16:02:20;6.93;;;0.70;;
31386;SDS011;18017;50.124;8.688;2022-12-07T16:04:47;3.20;;;0.90;;
31386;SDS011;18017;50.124;8.688;2022-12-07T16:07:13;6.03;;;0.95;;
31386;SDS011;18017;50.124;8.688;2022-12-07T16:09:40;2.75;;;0.50;;
31386;SDS011;18017;50.124;8.688;2022-12-07T16:12:06;5.72;;;0.70;;
31386;SDS011;18017;50.124;8.688;2022-12-07T16:14:32;5.90;;;1.17;;
31386;SDS011;18017;50.124;8.688;2022-12-07T16:16:58;3.78;;;0.63;;
31386;SDS011;18017;50.124;8.688;2022-12-07T16:19:24;5.07;;;1.20;;
31386;SDS011;18017;50.124;8.688;2022-12-07T16:21:50;3.10;;;0.65;;
31386;SDS011;18017;50.124;8.688;2022-12-07T16:24:15;5.20;;;0.90;;
31386;SDS011;18017;50.124;8.688;2022-12-07T16:26:41;7.78;;;0.98;;
31386;SDS011;18017;50.124;8.688;2022-12-07T16:29:09;2.55;;;0.90;;
31386;SDS011;18017;50.124;8.688;2022-12-07T16:31:36;3.17;;;0.75;;
31386;SDS011;18017;50.124;8.688;2022-12-07T16:34:02;4.00;;;0.75;;
31386;SDS011;18017;50.124;8.688;2022-12-07T16:36:28;2.63;;;0.90;;
31386;SDS011;18017;50.124;8.688;2022-12-07T16:38:54;2.53;;;0.60;;
31386;SDS011;18017;50.124;8.688;2022-12-07T16:41:19;6.85;;;0.77;;
31386;SDS011;18017;50.124;8.688;2022-12-07T16:43:45;3.83;;;0.80;;
31386;SDS011;18017;50.124;8.688;2022-12-07T16:46:11;5.85;;;1.00;;
31386;SDS011;18017;50.124;8.688;2022-12-07T16:48:37;4.57;;;0.88;;
31386;SDS011;18017;50.124;8.688;2022-12-07T16:51:04;5.03;;;1.00;;
31386;SDS011;18017;50.124;8.688;2022-12-07T16:53:33;5.43;;;0.60;;
31386;SDS011;18017;50.124;8.688;2022-12-07T16:55:59;2.60;;;0.60;;
31386;SDS011;18017;50.124;8.688;2022-12-07T16:58:25;5.93;;;0.77;;
31386;SDS011;18017;50.124;8.688;2022-12-07T17:00:50;5.85;;;1.05;;
31386;SDS011;18017;50.124;8.688;2022-12-07T17:03:16;4.00;;;0.52;;
31386;SDS011;18017;50.124;8.688;2022-12-07T17:05:42;5.25;;;0.77;;
31386;SDS011;18017;50.124;8.688;2022-12-07T17:08:09;3.08;;;0.57;;
31386;SDS011;18017;50.124;8.688;2022-12-07T17:10:40;4.65;;;0.77;;
31386;SDS011;18017;50.124;8.688;2022-12-07T17:13:08;1.73;;;0.57;;
31386;SDS011;18017;50.124;8.688;2022-12-07T17:15:57;3.42;;;0.70;;
31386;SDS011;18017;50.124;8.688;2022-12-07T17:18:31;5.07;;;0.73;;